Portada
METAR-TAF:

METAR-TAF

Aeropuertos :

Múrmansk, Rusia

latitud: 68-58N, longitud: 033-03E, altitud: 51 m

Observación

El informe se hizo hace 23 minutos, a las 07:00 UTC
Viento 2 kt del sur-sureste
Temperatura 16°C
Humedad 29%
Presión 1030 hPa
Visibilidad 10 km o más
sin nubes por debajo de 1500 m y sin presencia de cumulonimbus.

METAR: ULMM 260700Z 15001MPS CAVOK 16/M02 Q1030 R13/090070 NOSIG RMK QFE766

Hora: 10:23 (07:23 UTC)

Pronóstico

El informe se hizo hace 2 horas y 33 minutos, a las 04:50 UTC
Pronóstico válido del 26 a las 06 UTC al 27 a las 06 UTC
Viento 6 kt del sur
Visibilidad 10 km o más
sin nubes por debajo de 1500 m y sin presencia de cumulonimbus.
Temporalmente
del 26 a las 06 UTC al 26 a las 12 UTC
Viento 6 kt del sur-suroeste con ráfagas de 16 kt
Temporalmente
del 26 a las 12 UTC al 27 a las 06 UTC
Viento 6 kt del sureste con ráfagas de 16 kt

TAF: ULMM 260450Z 2606/2706 18003MPS CAVOK TEMPO 2606/2612 21003G08MPS TEMPO 2612/2706 14003G08MPS

Observaciones y pronósticos meteorológicos de más de 4000 aeropuertos (mensajes METAR y TAF).

Los puntos amarillos y rojos representan las estaciones disponibles.

Ponga el ratón en el punto deseado para ver el nombre de la estación.

Haga clic para ver las observaciones y los pronósticos meteorológicos.

Para cambiar el mapa : haga clic en los botones verdes con una cruz de color negro para hacer un zoom, en el botón verde con un guión para alejar o en las flechas verdes para mapas adyacentes.


METAR-TAF: